Time;durP1;ratioP1;P1;durP2;ratioP2;P2;SDS_P1;SDS_P2;PMS_P1;PMS_P2;Temp;Humidity;BMP_temperature;BMP_pressure;BME280_temperature;BME280_humidity;BME280_pressure;Samples;Min_cycle;Max_cycle;Signal;HPM_P1;HPM_P2
2023/08/08 00:00:47;;;;;;;0.80;0.80;;;;;;;;;;5030694;28;20211;-63
2023/08/08 00:03:13;;;;;;;1.00;1.00;;;;;;;;;;5029341;28;20225;-64
2023/08/08 00:05:40;;;;;;;1.50;1.30;;;;;;;;;;5028473;28;20196;-63
2023/08/08 00:08:07;;;;;;;1.83;1.73;;;;;;;;;;5031119;28;20246;-63
2023/08/08 00:10:33;;;;;;;1.00;1.00;;;;;;;;;;5030265;28;20214;-63
2023/08/08 00:13:02;;;;;;;1.10;1.10;;;;;;;;;;5030248;28;20251;-63
2023/08/08 00:15:28;;;;;;;1.10;1.10;;;;;;;;;;5030128;28;20200;-63
2023/08/08 00:17:55;;;;;;;1.10;1.10;;;;;;;;;;5030507;28;20261;-63
2023/08/08 00:20:21;;;;;;;1.02;1.02;;;;;;;;;;5029651;28;20677;-63
2023/08/08 00:22:48;;;;;;;1.00;1.00;;;;;;;;;;5029527;28;20224;-63
2023/08/08 00:25:14;;;;;;;4.22;0.88;;;;;;;;;;5029883;28;20212;-63
2023/08/08 00:27:43;;;;;;;0.75;0.75;;;;;;;;;;5029193;28;20670;-64
2023/08/08 00:30:12;;;;;;;1.17;1.17;;;;;;;;;;5029765;28;20286;-64
2023/08/08 00:32:39;;;;;;;0.82;0.82;;;;;;;;;;5029580;28;20288;-64
2023/08/08 00:35:06;;;;;;;1.65;1.00;;;;;;;;;;5029320;28;20199;-64
2023/08/08 00:37:32;;;;;;;0.90;0.90;;;;;;;;;;5029635;28;20265;-63
2023/08/08 00:39:59;;;;;;;1.30;1.20;;;;;;;;;;5029604;28;20204;-63
2023/08/08 00:42:25;;;;;;;9.82;1.48;;;;;;;;;;5029431;28;20681;-63
2023/08/08 00:44:51;;;;;;;0.98;0.98;;;;;;;;;;5029504;28;20215;-64
2023/08/08 00:47:19;;;;;;;1.50;1.13;;;;;;;;;;5029099;28;20211;-64
2023/08/08 00:49:48;;;;;;;0.85;0.85;;;;;;;;;;5017684;28;20203;-63
2023/08/08 00:52:15;;;;;;;0.90;0.90;;;;;;;;;;5028816;28;20230;-63
2023/08/08 00:54:41;;;;;;;1.30;1.10;;;;;;;;;;5029747;28;20265;-64
2023/08/08 00:57:08;;;;;;;1.15;0.95;;;;;;;;;;5029686;28;20204;-63
2023/08/08 00:59:34;;;;;;;0.90;0.90;;;;;;;;;;5029564;28;20262;-63
2023/08/08 01:02:01;;;;;;;1.05;1.05;;;;;;;;;;5029410;28;20298;-63
2023/08/08 01:04:29;;;;;;;1.30;1.00;;;;;;;;;;5029694;28;20234;-63
2023/08/08 01:06:58;;;;;;;1.00;1.00;;;;;;;;;;5029258;28;20211;-63
2023/08/08 01:09:29;;;;;;;2.22;1.13;;;;;;;;;;5025891;28;20253;-63
2023/08/08 01:11:56;;;;;;;0.80;0.80;;;;;;;;;;5029048;28;20195;-63
2023/08/08 01:14:24;;;;;;;1.20;1.17;;;;;;;;;;5029542;28;20253;-62
2023/08/08 01:16:51;;;;;;;3.70;0.95;;;;;;;;;;5032658;28;20678;-63
2023/08/08 01:19:24;;;;;;;3.97;1.10;;;;;;;;;;5033239;28;20706;-63
2023/08/08 01:21:53;;;;;;;1.02;1.02;;;;;;;;;;5032071;28;20300;-63
2023/08/08 01:24:22;;;;;;;1.10;1.10;;;;;;;;;;5033222;28;20282;-64
2023/08/08 01:26:49;;;;;;;1.00;0.95;;;;;;;;;;5032565;28;20211;-63
2023/08/08 01:29:15;;;;;;;2.63;1.20;;;;;;;;;;5033447;28;20235;-64
2023/08/08 01:31:42;;;;;;;1.20;1.20;;;;;;;;;;5032909;28;20298;-63
2023/08/08 01:34:08;;;;;;;1.13;1.10;;;;;;;;;;5032934;28;20204;-64
2023/08/08 01:36:39;;;;;;;1.00;1.00;;;;;;;;;;5032705;28;20217;-62
2023/08/08 01:39:09;;;;;;;1.02;1.02;;;;;;;;;;5033186;28;20207;-63
2023/08/08 01:41:39;;;;;;;1.10;1.10;;;;;;;;;;5032597;28;20215;-63
2023/08/08 01:44:06;;;;;;;1.77;1.10;;;;;;;;;;5032445;28;20220;-63
2023/08/08 01:46:33;;;;;;;0.85;0.85;;;;;;;;;;5032813;28;20206;-63
2023/08/08 01:48:59;;;;;;;0.88;0.88;;;;;;;;;;5033000;28;20200;-63
2023/08/08 01:51:27;;;;;;;0.90;0.90;;;;;;;;;;5032745;28;20200;-63
2023/08/08 01:53:53;;;;;;;1.10;1.00;;;;;;;;;;5032670;28;20204;-62
2023/08/08 01:56:20;;;;;;;1.08;1.08;;;;;;;;;;5032695;28;20640;-63
2023/08/08 01:58:48;;;;;;;2.17;1.08;;;;;;;;;;5032521;28;20215;-64
2023/08/08 02:01:14;;;;;;;0.98;0.90;;;;;;;;;;5032780;28;20207;-63
2023/08/08 02:03:41;;;;;;;1.00;1.00;;;;;;;;;;5032080;28;20269;-64
2023/08/08 02:06:07;;;;;;;1.00;1.00;;;;;;;;;;5032544;28;20678;-63
2023/08/08 02:08:34;;;;;;;1.30;1.20;;;;;;;;;;5032035;28;20212;-63
2023/08/08 02:11:00;;;;;;;1.00;1.00;;;;;;;;;;5032545;28;20200;-63
2023/08/08 02:13:27;;;;;;;2.67;1.20;;;;;;;;;;5031655;28;20208;-63
2023/08/08 02:15:55;;;;;;;1.10;1.10;;;;;;;;;;5032513;28;20211;-62
2023/08/08 02:18:21;;;;;;;2.28;1.17;;;;;;;;;;5031529;28;20758;-63
2023/08/08 02:20:47;;;;;;;1.75;1.10;;;;;;;;;;5032065;28;20593;-63
2023/08/08 02:23:14;;;;;;;1.20;1.20;;;;;;;;;;5031716;28;20273;-63
2023/08/08 02:25:40;;;;;;;1.10;1.10;;;;;;;;;;5032232;28;20261;-63
2023/08/08 02:28:07;;;;;;;1.42;1.15;;;;;;;;;;5031540;28;20238;-62
2023/08/08 02:30:33;;;;;;;1.40;1.40;;;;;;;;;;5032211;28;20273;-62
2023/08/08 02:33:01;;;;;;;1.20;1.20;;;;;;;;;;5031657;28;20231;-62
2023/08/08 02:35:27;;;;;;;1.10;1.10;;;;;;;;;;5031938;28;20648;-61
2023/08/08 02:37:54;;;;;;;1.20;1.20;;;;;;;;;;5031355;28;20219;-62
2023/08/08 02:40:23;;;;;;;2.55;1.48;;;;;;;;;;5030807;28;20635;-62
2023/08/08 02:42:49;;;;;;;1.55;1.55;;;;;;;;;;5031175;28;20226;-62
2023/08/08 02:45:16;;;;;;;1.55;1.13;;;;;;;;;;5031524;28;20230;-62
2023/08/08 02:47:42;;;;;;;1.50;1.50;;;;;;;;;;5031310;28;20254;-62
2023/08/08 02:50:10;;;;;;;1.50;1.40;;;;;;;;;;5031800;28;20211;-62
2023/08/08 02:52:37;;;;;;;1.52;1.42;;;;;;;;;;5031396;28;20223;-62
2023/08/08 02:55:04;;;;;;;1.60;1.50;;;;;;;;;;5031094;28;20257;-63
2023/08/08 02:57:30;;;;;;;1.23;1.23;;;;;;;;;;5030797;28;20581;-63
2023/08/08 02:59:57;;;;;;;1.90;1.42;;;;;;;;;;5031057;28;20697;-63
2023/08/08 03:02:24;;;;;;;2.33;1.25;;;;;;;;;;5031513;28;20199;-62
2023/08/08 03:04:50;;;;;;;1.85;1.65;;;;;;;;;;5031751;28;20291;-61
2023/08/08 03:07:18;;;;;;;1.90;1.80;;;;;;;;;;5031539;28;20196;-61
2023/08/08 03:09:44;;;;;;;1.48;1.48;;;;;;;;;;5031330;28;20631;-63
2023/08/08 03:12:11;;;;;;;2.05;1.95;;;;;;;;;;5031106;28;20204;-63
2023/08/08 03:14:37;;;;;;;1.80;1.70;;;;;;;;;;5031070;28;20751;-63
2023/08/08 03:17:04;;;;;;;2.35;1.63;;;;;;;;;;5030987;28;20243;-62
2023/08/08 03:19:31;;;;;;;1.48;1.48;;;;;;;;;;5031678;28;20277;-62
2023/08/08 03:21:57;;;;;;;2.78;1.70;;;;;;;;;;5031080;28;20301;-63
2023/08/08 03:24:25;;;;;;;1.95;1.83;;;;;;;;;;5031450;28;20255;-61
2023/08/08 03:26:51;;;;;;;1.80;1.70;;;;;;;;;;5031061;28;20239;-63
2023/08/08 03:29:18;;;;;;;3.13;1.80;;;;;;;;;;5031245;28;20293;-63
2023/08/08 03:31:44;;;;;;;7.30;2.22;;;;;;;;;;5030836;28;20238;-63
2023/08/08 03:34:11;;;;;;;2.15;1.67;;;;;;;;;;5030792;28;20571;-63
2023/08/08 03:36:37;;;;;;;1.95;1.85;;;;;;;;;;5030687;28;20231;-63
2023/08/08 03:39:04;;;;;;;2.08;1.98;;;;;;;;;;5030287;28;20208;-62
2023/08/08 03:41:31;;;;;;;2.28;2.17;;;;;;;;;;5030877;28;20239;-63
2023/08/08 03:43:58;;;;;;;3.25;1.98;;;;;;;;;;5031226;28;20257;-64
2023/08/08 03:46:24;;;;;;;2.40;2.08;;;;;;;;;;5030953;28;20250;-63
2023/08/08 03:48:51;;;;;;;4.10;2.40;;;;;;;;;;5030729;28;20211;-63
2023/08/08 03:51:17;;;;;;;2.10;2.00;;;;;;;;;;5030245;28;20206;-63
2023/08/08 03:53:44;;;;;;;2.15;2.03;;;;;;;;;;5030779;28;20214;-64
2023/08/08 03:56:10;;;;;;;2.22;2.00;;;;;;;;;;5030654;28;20200;-63
2023/08/08 03:58:38;;;;;;;2.47;2.28;;;;;;;;;;5030449;28;20594;-62
2023/08/08 04:01:05;;;;;;;2.60;2.40;;;;;;;;;;5030486;28;20227;-63
2023/08/08 04:03:31;;;;;;;2.63;2.45;;;;;;;;;;5028699;28;20204;-63
2023/08/08 04:05:57;;;;;;;3.50;2.13;;;;;;;;;;5030504;28;20255;-63
2023/08/08 04:08:24;;;;;;;2.85;2.38;;;;;;;;;;5030179;28;20238;-63
2023/08/08 04:10:50;;;;;;;2.67;2.42;;;;;;;;;;5030353;28;20238;-62
2023/08/08 04:13:17;;;;;;;2.45;2.35;;;;;;;;;;5030052;28;20199;-63
2023/08/08 04:15:45;;;;;;;2.28;2.08;;;;;;;;;;5029962;28;20223;-64
2023/08/08 04:18:11;;;;;;;2.60;2.40;;;;;;;;;;5030341;28;20246;-64
2023/08/08 04:20:38;;;;;;;2.60;2.50;;;;;;;;;;5030166;28;20207;-62
2023/08/08 04:23:05;;;;;;;2.42;2.33;;;;;;;;;;5029893;28;20294;-64
2023/08/08 04:25:31;;;;;;;2.65;2.55;;;;;;;;;;5017375;28;20710;-64
2023/08/08 04:27:57;;;;;;;2.85;2.60;;;;;;;;;;5029854;28;20627;-64
2023/08/08 04:30:24;;;;;;;7.32;2.80;;;;;;;;;;5030029;28;20234;-63
2023/08/08 04:32:52;;;;;;;5.45;4.95;;;;;;;;;;5029614;28;20214;-64
2023/08/08 04:35:18;;;;;;;5.53;3.72;;;;;;;;;;5030147;28;20257;-63
2023/08/08 04:37:45;;;;;;;4.75;4.45;;;;;;;;;;5029813;28;20266;-64
2023/08/08 04:40:11;;;;;;;3.55;3.25;;;;;;;;;;5030285;28;20200;-64
2023/08/08 04:42:38;;;;;;;2.83;2.72;;;;;;;;;;5029926;28;20237;-64
2023/08/08 04:45:05;;;;;;;3.28;2.70;;;;;;;;;;5029762;28;20228;-62
2023/08/08 04:47:31;;;;;;;4.00;2.85;;;;;;;;;;5029580;28;20269;-64
2023/08/08 04:49:59;;;;;;;2.90;2.80;;;;;;;;;;5031080;28;20712;-64
2023/08/08 04:52:26;;;;;;;3.10;3.00;;;;;;;;;;5033332;28;20720;-64
2023/08/08 04:54:52;;;;;;;3.42;2.10;;;;;;;;;;5033862;28;20636;-64
2023/08/08 04:57:19;;;;;;;8.00;6.75;;;;;;;;;;5033014;28;20664;-64
2023/08/08 04:59:45;;;;;;;3.97;3.78;;;;;;;;;;5033893;28;20668;-63
2023/08/08 05:02:11;;;;;;;4.00;3.33;;;;;;;;;;5033158;28;20266;-65
2023/08/08 05:04:38;;;;;;;2.70;2.60;;;;;;;;;;5033343;28;20238;-64
2023/08/08 05:07:06;;;;;;;2.60;2.50;;;;;;;;;;5033153;28;20237;-63
2023/08/08 05:09:33;;;;;;;2.40;2.20;;;;;;;;;;5033664;28;20239;-63
2023/08/08 05:11:59;;;;;;;2.30;2.10;;;;;;;;;;5033061;28;20207;-64
2023/08/08 05:14:25;;;;;;;2.38;2.22;;;;;;;;;;5033733;28;20192;-64
2023/08/08 05:16:52;;;;;;;1.90;1.80;;;;;;;;;;5032982;28;20207;-64
2023/08/08 05:19:18;;;;;;;2.08;1.95;;;;;;;;;;5033067;28;20635;-64
2023/08/08 05:21:45;;;;;;;1.88;1.77;;;;;;;;;;5032410;28;20243;-65
2023/08/08 05:24:13;;;;;;;5.78;2.15;;;;;;;;;;5033510;28;20231;-63
2023/08/08 05:26:39;;;;;;;2.05;1.85;;;;;;;;;;5033005;28;20211;-65
2023/08/08 05:29:06;;;;;;;2.20;2.10;;;;;;;;;;5033464;28;20674;-64
2023/08/08 05:31:32;;;;;;;3.92;1.65;;;;;;;;;;5032951;28;20212;-65
2023/08/08 05:33:58;;;;;;;5.60;1.67;;;;;;;;;;5033455;28;20200;-65
2023/08/08 05:36:25;;;;;;;1.42;1.42;;;;;;;;;;5032823;28;20199;-63
2023/08/08 05:38:51;;;;;;;3.22;2.05;;;;;;;;;;5033612;28;20200;-64
2023/08/08 05:41:19;;;;;;;3.53;1.80;;;;;;;;;;5032705;28;20686;-64
2023/08/08 05:43:46;;;;;;;2.08;1.80;;;;;;;;;;5033486;28;20697;-63
2023/08/08 05:46:12;;;;;;;1.83;1.70;;;;;;;;;;5033042;28;20346;-65
2023/08/08 05:48:38;;;;;;;1.73;1.63;;;;;;;;;;5033396;28;20647;-62
2023/08/08 05:51:05;;;;;;;2.10;2.00;;;;;;;;;;5034044;28;20235;-63
2023/08/08 05:53:32;;;;;;;1.80;1.70;;;;;;;;;;5033190;28;20224;-64
2023/08/08 05:55:58;;;;;;;1.80;1.77;;;;;;;;;;5032999;28;20195;-64
2023/08/08 05:58:26;;;;;;;3.45;1.70;;;;;;;;;;5032896;28;20235;-62
2023/08/08 06:00:53;;;;;;;1.50;1.50;;;;;;;;;;5032268;28;20665;-64
2023/08/08 06:03:19;;;;;;;2.25;1.80;;;;;;;;;;5032477;28;20555;-65
2023/08/08 06:05:46;;;;;;;1.98;1.80;;;;;;;;;;5032291;28;20741;-64
2023/08/08 06:08:13;;;;;;;5.43;2.92;;;;;;;;;;5032554;28;20239;-65
2023/08/08 06:10:40;;;;;;;3.88;2.97;;;;;;;;;;5032778;28;20305;-64
2023/08/08 06:13:06;;;;;;;2.35;2.15;;;;;;;;;;5032654;28;20234;-64
2023/08/08 06:15:34;;;;;;;2.28;2.17;;;;;;;;;;5032566;28;20200;-65
2023/08/08 06:18:00;;;;;;;1.60;1.20;;;;;;;;;;5033970;28;20203;-64
2023/08/08 06:20:28;;;;;;;1.60;1.50;;;;;;;;;;5032411;28;20231;-65
2023/08/08 06:22:54;;;;;;;1.58;1.48;;;;;;;;;;5032848;28;20208;-64
2023/08/08 06:25:21;;;;;;;0.98;0.90;;;;;;;;;;5032098;28;20219;-65
2023/08/08 06:27:47;;;;;;;2.53;1.30;;;;;;;;;;5032695;28;20204;-64
2023/08/08 06:30:14;;;;;;;1.50;1.40;;;;;;;;;;5031965;28;20206;-66
2023/08/08 06:32:42;;;;;;;1.23;1.23;;;;;;;;;;5032155;28;20262;-65
2023/08/08 06:35:09;;;;;;;1.50;1.50;;;;;;;;;;5031861;28;20206;-65
2023/08/08 06:37:35;;;;;;;1.35;1.20;;;;;;;;;;5032218;28;20798;-65
2023/08/08 06:40:02;;;;;;;3.13;1.55;;;;;;;;;;5031668;28;20289;-66
2023/08/08 06:42:29;;;;;;;1.40;1.40;;;;;;;;;;5032109;28;20204;-64
2023/08/08 06:44:55;;;;;;;1.35;1.25;;;;;;;;;;5031834;28;20227;-65
2023/08/08 06:47:22;;;;;;;1.17;1.08;;;;;;;;;;5031625;28;20297;-66
2023/08/08 06:49:49;;;;;;;2.88;1.10;;;;;;;;;;5031858;28;20240;-65
2023/08/08 06:52:16;;;;;;;1.45;1.33;;;;;;;;;;5031217;28;20782;-65
2023/08/08 06:54:41;;;;;;;3.30;1.85;;;;;;;;;;5031801;28;20238;-64
2023/08/08 06:57:08;;;;;;;2.53;1.98;;;;;;;;;;5031450;28;20235;-65
2023/08/08 06:59:34;;;;;;;1.77;1.67;;;;;;;;;;5031820;28;20267;-66
2023/08/08 07:02:01;;;;;;;1.73;1.67;;;;;;;;;;5031315;28;20566;-65
2023/08/08 07:04:27;;;;;;;1.92;1.83;;;;;;;;;;5031282;28;20223;-65
2023/08/08 07:06:55;;;;;;;3.03;2.72;;;;;;;;;;5031414;28;20219;-65
2023/08/08 07:09:22;;;;;;;2.28;2.15;;;;;;;;;;5031736;28;20196;-64
2023/08/08 07:11:48;;;;;;;3.05;2.75;;;;;;;;;;5030738;28;20206;-65
2023/08/08 07:14:15;;;;;;;3.03;2.80;;;;;;;;;;5031246;28;20262;-65
2023/08/08 07:16:41;;;;;;;3.15;1.70;;;;;;;;;;5030929;28;20196;-64
2023/08/08 07:19:07;;;;;;;2.15;1.95;;;;;;;;;;5031782;28;20262;-65
2023/08/08 07:21:34;;;;;;;3.95;2.88;;;;;;;;;;5030851;28;20685;-65
2023/08/08 07:24:02;;;;;;;2.25;2.15;;;;;;;;;;5031510;28;20204;-65
2023/08/08 07:26:29;;;;;;;3.95;1.80;;;;;;;;;;5030934;28;20223;-65
2023/08/08 07:28:56;;;;;;;3.97;1.52;;;;;;;;;;5031039;28;20644;-65
2023/08/08 07:31:22;;;;;;;1.52;1.42;;;;;;;;;;5030800;28;20242;-66
2023/08/08 07:33:49;;;;;;;1.15;1.15;;;;;;;;;;5031617;28;20207;-65
2023/08/08 07:36:15;;;;;;;1.70;1.60;;;;;;;;;;5042940;28;20672;-65
2023/08/08 07:38:41;;;;;;;1.30;1.20;;;;;;;;;;5031467;28;20200;-65
2023/08/08 07:41:10;;;;;;;1.67;1.08;;;;;;;;;;5030788;28;20646;-65
2023/08/08 07:43:36;;;;;;;0.93;0.93;;;;;;;;;;5030939;28;20299;-65
2023/08/08 07:46:02;;;;;;;0.95;0.95;;;;;;;;;;5030638;28;20313;-65
2023/08/08 07:48:29;;;;;;;1.48;0.98;;;;;;;;;;5026245;28;20200;-65
2023/08/08 07:50:55;;;;;;;1.25;1.25;;;;;;;;;;5027420;28;20243;-65
2023/08/08 07:53:22;;;;;;;1.00;1.00;;;;;;;;;;5030479;28;20250;-64
2023/08/08 07:55:48;;;;;;;1.05;1.05;;;;;;;;;;5030564;28;20199;-65
2023/08/08 07:58:16;;;;;;;1.90;1.40;;;;;;;;;;5030623;28;20203;-64
2023/08/08 08:00:43;;;;;;;2.80;1.08;;;;;;;;;;5030407;28;20253;-64
2023/08/08 08:03:09;;;;;;;0.95;0.85;;;;;;;;;;5030267;28;20308;-65
2023/08/08 08:05:37;;;;;;;1.40;1.10;;;;;;;;;;5030163;28;20235;-64
2023/08/08 08:08:04;;;;;;;0.70;0.70;;;;;;;;;;5030458;28;20277;-64
2023/08/08 08:10:30;;;;;;;0.95;0.95;;;;;;;;;;5030526;28;20207;-64
2023/08/08 08:12:58;;;;;;;2.15;1.10;;;;;;;;;;5030005;28;20211;-64
2023/08/08 08:15:26;;;;;;;4.13;0.70;;;;;;;;;;5026256;28;20212;-65
2023/08/08 08:17:52;;;;;;;0.80;0.80;;;;;;;;;;5021402;28;20296;-66
2023/08/08 08:20:19;;;;;;;1.10;1.10;;;;;;;;;;5030184;28;20199;-65
2023/08/08 08:22:45;;;;;;;0.70;0.70;;;;;;;;;;5030396;28;20301;-64
2023/08/08 08:25:12;;;;;;;1.25;1.25;;;;;;;;;;5029793;28;20208;-64
2023/08/08 08:27:39;;;;;;;1.50;1.10;;;;;;;;;;5030314;28;20684;-65
2023/08/08 08:30:06;;;;;;;1.10;1.10;;;;;;;;;;5024654;28;20743;-65
2023/08/08 08:32:34;;;;;;;1.20;1.20;;;;;;;;;;5033024;28;20238;-65
2023/08/08 08:35:01;;;;;;;4.43;1.25;;;;;;;;;;5030872;28;20286;-64
2023/08/08 08:37:28;;;;;;;1.20;1.20;;;;;;;;;;5030103;28;20231;-65
2023/08/08 08:39:54;;;;;;;1.50;1.50;;;;;;;;;;5030103;28;20195;-65
2023/08/08 08:42:20;;;;;;;1.20;1.20;;;;;;;;;;5029546;28;20207;-64
2023/08/08 08:44:49;;;;;;;1.85;1.75;;;;;;;;;;5029812;28;20254;-64
2023/08/08 08:47:16;;;;;;;1.90;1.85;;;;;;;;;;5029454;28;20223;-64
2023/08/08 08:49:45;;;;;;;1.40;1.40;;;;;;;;;;5030147;28;20235;-65
2023/08/08 08:52:12;;;;;;;2.20;1.65;;;;;;;;;;5029551;28;20231;-64
2023/08/08 08:54:38;;;;;;;1.40;1.40;;;;;;;;;;5021748;28;20717;-65
2023/08/08 08:57:05;;;;;;;1.27;1.27;;;;;;;;;;5029132;28;20200;-64
2023/08/08 08:59:31;;;;;;;1.20;1.20;;;;;;;;;;5029758;28;20767;-65
2023/08/08 09:01:58;;;;;;;2.30;1.08;;;;;;;;;;5029515;28;20204;-65
2023/08/08 09:04:24;;;;;;;1.45;1.20;;;;;;;;;;5029582;28;20729;-64
2023/08/08 09:06:52;;;;;;;3.10;1.60;;;;;;;;;;5029251;28;20729;-65
2023/08/08 09:09:21;;;;;;;1.50;1.50;;;;;;;;;;5029843;28;20677;-64
2023/08/08 09:11:48;;;;;;;1.52;1.20;;;;;;;;;;5029487;28;20203;-65
2023/08/08 09:14:18;;;;;;;3.50;1.00;;;;;;;;;;5029335;28;20227;-62
2023/08/08 09:16:46;;;;;;;0.95;0.90;;;;;;;;;;5029022;28;20203;-64
2023/08/08 09:19:12;;;;;;;2.15;1.40;;;;;;;;;;5029697;28;20691;-64
2023/08/08 09:21:39;;;;;;;0.80;0.80;;;;;;;;;;5029154;28;20215;-63
2023/08/08 09:24:07;;;;;;;1.25;1.00;;;;;;;;;;5037741;28;20199;-64
2023/08/08 09:26:34;;;;;;;1.20;1.20;;;;;;;;;;5033063;28;20717;-63
2023/08/08 09:29:00;;;;;;;0.80;0.80;;;;;;;;;;5029564;28;20214;-63
2023/08/08 09:31:27;;;;;;;2.40;1.60;;;;;;;;;;5029252;28;20681;-63
2023/08/08 09:33:54;;;;;;;0.98;0.98;;;;;;;;;;5029708;28;20338;-64
2023/08/08 09:36:21;;;;;;;2.35;1.00;;;;;;;;;;5030796;28;20211;-64
2023/08/08 09:38:47;;;;;;;0.95;0.93;;;;;;;;;;5033364;28;20234;-64
2023/08/08 09:41:15;;;;;;;0.90;0.90;;;;;;;;;;5033056;28;20353;-64
2023/08/08 09:43:43;;;;;;;1.67;1.25;;;;;;;;;;5033076;28;20227;-63
2023/08/08 09:46:10;;;;;;;1.20;1.10;;;;;;;;;;5033059;28;20250;-63
2023/08/08 09:48:39;;;;;;;1.73;1.45;;;;;;;;;;5033027;28;20211;-64
2023/08/08 09:51:07;;;;;;;1.40;1.40;;;;;;;;;;5032542;28;20733;-63
2023/08/08 09:53:34;;;;;;;1.50;1.40;;;;;;;;;;5033068;28;20224;-64
2023/08/08 09:56:02;;;;;;;1.50;1.50;;;;;;;;;;5032269;28;20271;-64
2023/08/08 09:58:30;;;;;;;1.35;1.35;;;;;;;;;;5032863;28;20272;-63
2023/08/08 10:00:56;;;;;;;1.30;1.30;;;;;;;;;;5032336;28;20227;-64
2023/08/08 10:03:23;;;;;;;2.70;1.48;;;;;;;;;;5032589;28;20261;-64
2023/08/08 10:05:50;;;;;;;3.25;2.83;;;;;;;;;;5032096;28;20705;-64
2023/08/08 10:08:17;;;;;;;1.77;1.67;;;;;;;;;;5032492;28;20289;-63
2023/08/08 10:10:45;;;;;;;1.50;1.50;;;;;;;;;;5032071;28;20298;-64
2023/08/08 10:13:11;;;;;;;1.70;1.35;;;;;;;;;;5032901;28;20218;-63
2023/08/08 10:15:40;;;;;;;1.73;1.70;;;;;;;;;;5032283;28;20265;-64
2023/08/08 10:18:06;;;;;;;1.80;1.50;;;;;;;;;;5032241;28;20235;-64
2023/08/08 10:20:33;;;;;;;4.93;4.53;;;;;;;;;;5032226;28;20196;-64
2023/08/08 10:23:02;;;;;;;2.40;1.90;;;;;;;;;;5032572;28;20206;-64
2023/08/08 10:25:29;;;;;;;2.80;2.00;;;;;;;;;;5031635;28;20200;-64
2023/08/08 10:28:05;;;;;;;1.33;1.33;;;;;;;;;;5031827;28;20223;-63
2023/08/08 10:30:42;;;;;;;1.10;1.10;;;;;;;;;;5020932;28;20268;-62
2023/08/08 10:33:16;;;;;;;2.17;1.30;;;;;;;;;;5031715;28;20739;-63
2023/08/08 10:35:51;;;;;;;4.72;1.38;;;;;;;;;;5032517;28;20203;-63
2023/08/08 10:38:17;;;;;;;1.30;1.30;;;;;;;;;;5031691;28;20230;-64
2023/08/08 10:40:44;;;;;;;3.65;1.98;;;;;;;;;;5032237;28;20338;-63
2023/08/08 10:43:12;;;;;;;4.13;3.47;;;;;;;;;;5031568;28;20687;-64
2023/08/08 10:45:42;;;;;;;2.40;2.20;;;;;;;;;;5032345;28;20253;-64
2023/08/08 10:48:11;;;;;;;1.70;1.60;;;;;;;;;;5029833;28;20199;-63
2023/08/08 10:50:40;;;;;;;1.85;1.10;;;;;;;25.46;nan;95304.59;5031559;28;20243;-63
2023/08/08 10:53:09;;;;;;;3.38;1.67;;;;;;;;;;5031513;28;20305;-63
2023/08/08 10:55:36;;;;;;;1.20;1.20;;;;;;;;;;5031495;28;20208;-62
2023/08/08 10:58:05;;;;;;;2.15;1.67;;;;;;;;;;5031659;28;20524;-62
2023/08/08 11:00:34;;;;;;;1.00;1.00;;;;;;;;;;5031461;28;20261;-64
2023/08/08 11:03:00;;;;;;;1.08;1.00;;;;;;;;;;5031662;28;20239;-63
2023/08/08 11:05:30;;;;;;;2.50;2.30;;;;;;;;;;5031064;28;20289;-63
2023/08/08 11:07:57;;;;;;;2.80;1.90;;;;;;;;;;5031333;28;20227;-63
2023/08/08 11:10:23;;;;;;;1.30;1.30;;;;;;;;;;5031075;28;20258;-63
2023/08/08 11:12:59;;;;;;;1.30;1.20;;;;;;;;;;5031474;28;20204;-62
2023/08/08 11:15:27;;;;;;;2.40;2.30;;;;;;;;;;5030985;28;20200;-64
2023/08/08 11:17:54;;;;;;;2.17;2.00;;;;;;;;;;5031113;28;20303;-64
2023/08/08 11:20:21;;;;;;;2.17;2.08;;;;;;;;;;5030795;28;20204;-63
2023/08/08 11:22:53;;;;;;;1.17;1.17;;;;;;;;;;5032817;28;20265;-63
2023/08/08 11:25:19;;;;;;;2.35;1.33;;;;;;;;;;5031758;28;20236;-63
2023/08/08 11:27:49;;;;;;;4.25;1.23;;;;;;;;;;5031276;28;20664;-62
2023/08/08 11:30:15;;;;;;;1.17;1.08;;;;;;;;;;5032079;28;20203;-63
2023/08/08 11:32:42;;;;;;;1.20;1.20;;;;;;;;;;5031726;28;20216;-63
2023/08/08 11:35:09;;;;;;;1.27;1.23;;;;;;;;;;5030865;28;20281;-63
2023/08/08 11:37:36;;;;;;;1.30;1.30;;;;;;;;;;5031109;28;20199;-62
2023/08/08 11:40:05;;;;;;;1.00;1.00;;;;;;;;;;5030770;28;20266;-64
2023/08/08 11:42:32;;;;;;;1.00;1.00;;;;;;;;;;5030738;28;20314;-64
2023/08/08 11:44:58;;;;;;;2.05;1.48;;;;;;;;;;5031147;28;20276;-64
2023/08/08 11:47:25;;;;;;;0.93;0.90;;;;;;;;;;5030339;28;20259;-62
2023/08/08 11:49:52;;;;;;;1.48;1.48;;;;;;;;;;5030819;28;20242;-62
2023/08/08 11:52:19;;;;;;;1.20;1.20;;;;;;;;;;5030262;28;20227;-64
2023/08/08 11:54:45;;;;;;;1.60;1.50;;;;;;;;;;5030860;28;20698;-65
2023/08/08 11:57:13;;;;;;;1.33;1.23;;;;;;;;;;5031678;28;20277;-65
2023/08/08 11:59:40;;;;;;;3.90;1.17;;;;;;;;;;5030514;28;20712;-64
2023/08/08 12:02:07;;;;;;;1.00;1.00;;;;;;;;;;5030678;28;20605;-62
2023/08/08 12:04:33;;;;;;;2.25;1.13;;;;;;;;;;5030904;28;20232;-64
2023/08/08 12:07:03;;;;;;;1.83;1.20;;;;;;;;;;5030343;28;20321;-64
2023/08/08 12:09:30;;;;;;;1.58;1.48;;;;;;;;;;5030788;28;20286;-65
2023/08/08 12:11:59;;;;;;;1.40;1.30;;;;;;;;;;5030206;28;20211;-65
2023/08/08 12:14:27;;;;;;;1.10;1.10;;;;;;;;;;5030496;28;20231;-65
2023/08/08 12:16:54;;;;;;;1.55;1.50;;;;;;;;;;5029964;28;20725;-64
2023/08/08 12:19:23;;;;;;;2.22;1.33;;;;;;;;;;5030566;28;20227;-64
2023/08/08 12:21:49;;;;;;;1.60;1.30;;;;;;;;;;5030030;28;20239;-64
2023/08/08 12:24:16;;;;;;;1.77;1.10;;;;;;;;;;5030259;28;20242;-64
2023/08/08 12:26:43;;;;;;;1.67;1.50;;;;;;;;;;5029690;28;20254;-63
2023/08/08 12:29:09;;;;;;;1.20;1.10;;;;;;;;;;5030318;28;20242;-63
2023/08/08 12:31:37;;;;;;;1.40;1.27;;;;;;;;;;5029674;28;20263;-64
2023/08/08 12:34:04;;;;;;;1.13;1.13;;;;;;;;;;5029783;28;20621;-63
2023/08/08 12:36:31;;;;;;;1.50;1.50;;;;;;;;;;5029776;28;20295;-64
2023/08/08 12:38:57;;;;;;;1.05;1.05;;;;;;;;;;5030081;28;20207;-64
2023/08/08 12:41:24;;;;;;;2.20;1.00;;;;;;;;;;5029939;28;20238;-64
2023/08/08 12:43:51;;;;;;;1.10;1.10;;;;;;;;;;5029863;28;20212;-63
2023/08/08 12:46:17;;;;;;;1.40;1.27;;;;;;;;;;5030014;28;20566;-64
2023/08/08 12:48:45;;;;;;;1.65;1.23;;;;;;;;;;5029861;28;20211;-64
2023/08/08 12:51:11;;;;;;;1.30;1.20;;;;;;;;;;5029380;28;20203;-64
2023/08/08 12:53:38;;;;;;;1.20;1.20;;;;;;;;;;5030216;28;20251;-63
2023/08/08 12:56:04;;;;;;;2.58;1.20;;;;;;;;;;5029846;28;20258;-63
2023/08/08 12:58:31;;;;;;;1.20;1.20;;;;;;;;;;5029691;28;20689;-64
2023/08/08 13:00:57;;;;;;;1.30;1.20;;;;;;;;;;5029417;28;20632;-64
2023/08/08 13:03:24;;;;;;;1.42;1.42;;;;;;;;;;5029373;28;20653;-64
2023/08/08 13:05:52;;;;;;;1.20;1.20;;;;;;;;;;5029198;28;20601;-64
2023/08/08 13:08:19;;;;;;;2.38;1.42;;;;;;;;;;5029937;28;20231;-64
2023/08/08 13:10:46;;;;;;;1.52;1.50;;;;;;;;;;5030185;28;20670;-64
2023/08/08 13:13:13;;;;;;;1.23;1.23;;;;;;;;;;5033568;28;20273;-64
2023/08/08 13:15:39;;;;;;;1.25;1.25;;;;;;;;;;5033467;28;20234;-64
2023/08/08 13:18:06;;;;;;;1.45;1.40;;;;;;;;;;5033378;28;20289;-63
2023/08/08 13:20:32;;;;;;;2.38;1.17;;;;;;;;;;5033469;28;20199;-63
2023/08/08 13:23:00;;;;;;;3.00;1.50;;;;;;;;;;5033637;28;20231;-63
2023/08/08 13:25:26;;;;;;;2.40;1.40;;;;;;;;;;5033253;28;20304;-63
2023/08/08 13:27:53;;;;;;;4.03;1.40;;;;;;;;;;5033479;28;20317;-63
2023/08/08 13:30:21;;;;;;;1.50;1.40;;;;;;;;;;5033136;28;20257;-63
2023/08/08 13:32:48;;;;;;;1.42;1.40;;;;;;;;;;5033113;28;20203;-63
2023/08/08 13:35:14;;;;;;;0.90;0.90;;;;;;;;;;5020901;28;20200;-63
2023/08/08 13:37:40;;;;;;;1.40;1.40;;;;;;;;;;5033262;28;20227;-63
2023/08/08 13:40:09;;;;;;;1.00;1.00;;;;;;;;;;5032977;28;20682;-64
2023/08/08 13:42:35;;;;;;;1.30;1.30;;;;;;;;;;5032899;28;20636;-64
2023/08/08 13:45:02;;;;;;;1.15;1.15;;;;;;;;;;5033374;28;20203;-63
2023/08/08 13:47:28;;;;;;;1.52;1.42;;;;;;;;;;5032365;28;20709;-63
2023/08/08 13:49:54;;;;;;;1.17;1.17;;;;;;;;;;5032986;28;20232;-63
2023/08/08 13:52:21;;;;;;;2.30;1.42;;;;;;;;;;5032364;28;20227;-64
2023/08/08 13:54:47;;;;;;;1.33;1.33;;;;;;;;;;5033080;28;20212;-64
2023/08/08 13:57:15;;;;;;;1.45;1.35;;;;;;;;;;5032533;28;20204;-64
2023/08/08 13:59:42;;;;;;;1.67;1.58;;;;;;;;;;5032718;28;20199;-63
2023/08/08 14:02:08;;;;;;;1.30;1.30;;;;;;;;;;5032314;28;20200;-62
2023/08/08 14:04:35;;;;;;;1.20;1.20;;;;;;;;;;5032944;28;20235;-64
2023/08/08 14:07:01;;;;;;;1.00;0.95;;;;;;;;;;5031917;28;20716;-64
2023/08/08 14:09:28;;;;;;;1.02;1.02;;;;;;;;;;5033068;28;20203;-64
2023/08/08 14:11:54;;;;;;;1.90;1.45;;;;;;;;;;5032059;28;20664;-65
2023/08/08 14:14:22;;;;;;;1.10;1.10;;;;;;;;;;5032266;28;20257;-64
2023/08/08 14:16:48;;;;;;;3.55;0.98;;;;;;;;;;5031961;28;20261;-63
2023/08/08 14:19:16;;;;;;;1.60;1.10;;;;;;;;;;5032654;28;20238;-63
2023/08/08 14:21:43;;;;;;;1.48;1.38;;;;;;;;;;5032023;28;20207;-64
2023/08/08 14:24:09;;;;;;;1.40;1.30;;;;;;;;;;5032559;28;20200;-64
2023/08/08 14:26:36;;;;;;;2.63;1.10;;;;;;;;;;5031671;28;20729;-62
2023/08/08 14:29:02;;;;;;;1.10;1.10;;;;;;;;;;5032385;28;20300;-63
2023/08/08 14:31:30;;;;;;;1.48;1.20;;;;;;;;;;5031647;28;20230;-63
2023/08/08 14:33:57;;;;;;;1.83;1.13;;;;;;;;;;5032655;28;20215;-63
2023/08/08 14:36:23;;;;;;;1.10;1.10;;;;;;;;;;5031377;28;20277;-63
2023/08/08 14:38:50;;;;;;;0.93;0.93;;;;;;;;;;5032509;28;20271;-63
2023/08/08 14:41:16;;;;;;;1.10;1.00;;;;;;;;;;5031817;28;20291;-62